^^
Meteo Knjazevac Station Historical Data
Daily Summary for March 1, 2021 Units:  Both    English   Metric
Daily Weekly Monthly Yearly Custom
  High: Low: Average:
Temperature: 77 °F /  25 °C 66 °F /  18.9 °C 70.4 °F /  21.3 °C
Dew Point: 62 °F /  16.7 °C 57.5 °F /  14.2 °C 59.7 °F /  15.4 °C
Humidity: 77% 59% 69%
Wind Speed: 5mph /  8km/h - 1.2mph /  1.9km/h
Wind Gust: 8mph /  12.9km/h - -
Wind- - SSW
Pressure: 29.96 in /  1014.4 hPa 29.90 in /  1012.4 hPa -
Precipitation: 0.00 in /  0 mm    
Historical Graphs
 
 
Tabular Data for March 1, 2021
Time Temperature Dew Point Pressure Wind Wind Speed Wind Gust Humidity Rainfall Rate (Hourly) solar Conditions
00:00 77 °F /  25 °C 61.6 °F /  16.4 °C 29.90in /  1012.4hPa Calm   3mph /  4.8km/h 59% 0.00in /  0mm 0 W/m2
00:10 76.8 °F /  24.9 °C 61.4 °F /  16.3 °C 29.90in /  1012.4hPa North 1mph /  1.6km/h 5mph /  8km/h 59% 0.00in /  0mm 0 W/m2
00:20 76.3 °F /  24.6 °C 61.4 °F /  16.3 °C 29.91in /  1012.8hPa North 1mph /  1.6km/h 3mph /  4.8km/h 60% 0.00in /  0mm 0 W/m2
00:30 75.9 °F /  24.4 °C 61 °F /  16.1 °C 29.91in /  1012.8hPa NW 2mph /  3.2km/h 5mph /  8km/h 60% 0.00in /  0mm 0 W/m2
00:40 75.7 °F /  24.3 °C 60.4 °F /  15.8 °C 29.91in /  1012.8hPa South 5mph /  8km/h 7mph /  11.3km/h 59% 0.00in /  0mm 0 W/m2
00:50 75.7 °F /  24.3 °C 60.4 °F /  15.8 °C 29.91in /  1012.8hPa SSW 1mph /  1.6km/h 8mph /  12.9km/h 59% 0.00in /  0mm 0 W/m2
01:00 75.6 °F /  24.2 °C 60.3 °F /  15.7 °C 29.91in /  1012.8hPa NNE 5mph /  8km/h 6mph /  9.7km/h 59% 0.00in /  0mm 0 W/m2
01:10 75.2 °F /  24 °C 61.3 °F /  16.3 °C 29.91in /  1012.8hPa North 2mph /  3.2km/h 6mph /  9.7km/h 62% 0.00in /  0mm 0 W/m2
01:20 74.7 °F /  23.7 °C 60.8 °F /  16 °C 29.91in /  1012.8hPa NNE 2mph /  3.2km/h 7mph /  11.3km/h 62% 0.00in /  0mm 0 W/m2
01:30 74.3 °F /  23.5 °C 60.9 °F /  16.1 °C 29.91in /  1012.8hPa North 1mph /  1.6km/h 5mph /  8km/h 63% 0.00in /  0mm 0 W/m2
01:40 73.8 °F /  23.2 °C 60.8 °F /  16 °C 29.91in /  1012.8hPa Calm   4mph /  6.4km/h 64% 0.00in /  0mm 0 W/m2
01:50 73.4 °F /  23 °C 60.5 °F /  15.8 °C 29.91in /  1012.8hPa NNE 1mph /  1.6km/h 5mph /  8km/h 64% 0.00in /  0mm 0 W/m2
02:00 73 °F /  22.8 °C 60.6 °F /  15.9 °C 29.91in /  1012.8hPa Calm   3mph /  4.8km/h 65% 0.00in /  0mm 0 W/m2
02:10 72.3 °F /  22.4 °C 60.8 °F /  16 °C 29.91in /  1012.8hPa NNW 1mph /  1.6km/h 2mph /  3.2km/h 67% 0.00in /  0mm 0 W/m2
02:20 72 °F /  22.2 °C 59.6 °F /  15.3 °C 29.91in /  1012.8hPa West 1mph /  1.6km/h 4mph /  6.4km/h 65% 0.00in /  0mm 0 W/m2
02:30 71.6 °F /  22 °C 59.2 °F /  15.1 °C 29.92in /  1013.1hPa NNE 2mph /  3.2km/h 5mph /  8km/h 65% 0.00in /  0mm 0 W/m2
02:40 71.6 °F /  22 °C 58.8 °F /  14.9 °C 29.92in /  1013.1hPa SSE 2mph /  3.2km/h 5mph /  8km/h 64% 0.00in /  0mm 0 W/m2
02:50 71.4 °F /  21.9 °C 59 °F /  15 °C 29.92in /  1013.1hPa Calm   4mph /  6.4km/h 65% 0.00in /  0mm 0 W/m2
03:00 70.9 °F /  21.6 °C 59.4 °F /  15.2 °C 29.92in /  1013.1hPa North 1mph /  1.6km/h 3mph /  4.8km/h 67% 0.00in /  0mm 0 W/m2
03:10 70.2 °F /  21.2 °C 59.1 °F /  15.1 °C 29.92in /  1013.1hPa NNW 1mph /  1.6km/h 3mph /  4.8km/h 68% 0.00in /  0mm 0 W/m2
03:20 69.5 °F /  20.8 °C 58.8 °F /  14.9 °C 29.92in /  1013.1hPa West 2mph /  3.2km/h 3mph /  4.8km/h 69% 0.00in /  0mm 0 W/m2
03:30 68.4 °F /  20.2 °C 58.2 °F /  14.6 °C 29.92in /  1013.1hPa Calm   3mph /  4.8km/h 70% 0.00in /  0mm 0 W/m2
03:40 68 °F /  20 °C 58.6 °F /  14.8 °C 29.93in /  1013.4hPa NNW 1mph /  1.6km/h 4mph /  6.4km/h 72% 0.00in /  0mm 0 W/m2
03:50 67.8 °F /  19.9 °C 58.5 °F /  14.7 °C 29.93in /  1013.4hPa North 1mph /  1.6km/h 3mph /  4.8km/h 72% 0.00in /  0mm 0 W/m2
04:00 67.8 °F /  19.9 °C 58.5 °F /  14.7 °C 29.93in /  1013.4hPa North 2mph /  3.2km/h 2mph /  3.2km/h 72% 0.00in /  0mm 0 W/m2
04:10 67.6 °F /  19.8 °C 58.3 °F /  14.6 °C 29.93in /  1013.4hPa NNE 2mph /  3.2km/h 4mph /  6.4km/h 72% 0.00in /  0mm 0 W/m2
04:20 67.5 °F /  19.7 °C 58.1 °F /  14.5 °C 29.93in /  1013.4hPa ENE 1mph /  1.6km/h 3mph /  4.8km/h 72% 0.00in /  0mm 0 W/m2
04:30 67.3 °F /  19.6 °C 58.3 °F /  14.6 °C 29.94in /  1013.8hPa West 2mph /  3.2km/h 3mph /  4.8km/h 73% 0.00in /  0mm 0 W/m2
04:40 66.6 °F /  19.2 °C 57.6 °F /  14.2 °C 29.94in /  1013.8hPa WNW 1mph /  1.6km/h 3mph /  4.8km/h 73% 0.00in /  0mm 0 W/m2
04:50 66.4 °F /  19.1 °C 57.5 °F /  14.2 °C 29.94in /  1013.8hPa WNW 1mph /  1.6km/h 3mph /  4.8km/h 73% 0.00in /  0mm 0 W/m2
05:00 66.2 °F /  19 °C 57.7 °F /  14.3 °C 29.94in /  1013.8hPa Calm   2mph /  3.2km/h 74% 0.00in /  0mm 4 W/m2
05:10 66 °F /  18.9 °C 57.5 °F /  14.2 °C 29.94in /  1013.8hPa NNE 3mph /  4.8km/h 4mph /  6.4km/h 74% 0.00in /  0mm 8 W/m2
05:20 66.4 °F /  19.1 °C 57.5 °F /  14.2 °C 29.95in /  1014.1hPa ENE 2mph /  3.2km/h 5mph /  8km/h 73% 0.00in /  0mm 19 W/m2
05:30 66.7 °F /  19.3 °C 58.2 °F /  14.6 °C 29.94in /  1013.8hPa South 1mph /  1.6km/h 5mph /  8km/h 74% 0.00in /  0mm 28 W/m2
05:40 66.4 °F /  19.1 °C 58.2 °F /  14.6 °C 29.95in /  1014.1hPa Calm   3mph /  4.8km/h 75% 0.00in /  0mm 32 W/m2
05:50 66.4 °F /  19.1 °C 58.2 °F /  14.6 °C 29.95in /  1014.1hPa West 1mph /  1.6km/h 4mph /  6.4km/h 75% 0.00in /  0mm 32 W/m2
06:00 66.6 °F /  19.2 °C 58.4 °F /  14.7 °C 29.95in /  1014.1hPa NNW 1mph /  1.6km/h 2mph /  3.2km/h 75% 0.00in /  0mm 39 W/m2
06:10 66.7 °F /  19.3 °C 58.6 °F /  14.8 °C 29.95in /  1014.1hPa Calm   2mph /  3.2km/h 75% 0.00in /  0mm 43 W/m2
06:20 67.1 °F /  19.5 °C 58.9 °F /  14.9 °C 29.95in /  1014.1hPa WNW 1mph /  1.6km/h 2mph /  3.2km/h 75% 0.00in /  0mm 64 W/m2
06:30 67.5 °F /  19.7 °C 60 °F /  15.6 °C 29.95in /  1014.1hPa West 1mph /  1.6km/h 2mph /  3.2km/h 77% 0.00in /  0mm 79 W/m2
06:40 67.6 °F /  19.8 °C 60.2 °F /  15.7 °C 29.95in /  1014.1hPa NNW 1mph /  1.6km/h 2mph /  3.2km/h 77% 0.00in /  0mm 106 W/m2
06:50 68.2 °F /  20.1 °C 60 °F /  15.6 °C 29.96in /  1014.4hPa NW 2mph /  3.2km/h 3mph /  4.8km/h 75% 0.00in /  0mm 216 W/m2
07:00 68.7 °F /  20.4 °C 61.2 °F /  16.2 °C 29.95in /  1014.1hPa West 2mph /  3.2km/h 3mph /  4.8km/h 77% 0.00in /  0mm 111 W/m2
07:10 69.1 °F /  20.6 °C 60.8 °F /  16 °C 29.96in /  1014.4hPa Calm   3mph /  4.8km/h 75% 0.00in /  0mm 118 W/m2
07:20 69.6 °F /  20.9 °C 61.3 °F /  16.3 °C 29.96in /  1014.4hPa Calm   2mph /  3.2km/h 75% 0.00in /  0mm 138 W/m2
07:30 70.3 °F /  21.3 °C 59.7 °F /  15.4 °C 29.96in /  1014.4hPa Calm   3mph /  4.8km/h 69% 0.00in /  0mm 364 W/m2
07:40 71.1 °F /  21.7 °C 62 °F /  16.7 °C 29.96in /  1014.4hPa Calm   2mph /  3.2km/h 73% 0.00in /  0mm 381 W/m2
07:50 71.8 °F /  22.1 °C 61.1 °F /  16.2 °C 29.96in /  1014.4hPa Calm   2mph /  3.2km/h 69% 0.00in /  0mm 415 W/m2
08:00 72.5 °F /  22.5 °C 61.7 °F /  16.5 °C 29.95in /  1014.1hPa SSE 2mph /  3.2km/h 5mph /  8km/h 69% 0.00in /  0mm 460 W/m2
08:10 73.2 °F /  22.9 °C 62 °F /  16.7 °C 29.96in /  1014.4hPa WSW 1mph /  1.6km/h 2mph /  3.2km/h 68% 0.00in /  0mm 486 W/m2
Knjazevac, Serbia
Compliments of Weather Underground - 2 mb